Flugplatz Anspach/Taunus

Für EDFA sind keine METAR/TAF Berichte vorhanden.
Es werden die Flugwettermeldungen vom Flugplatz Frankfurt am Main International in 28 km Entfernung angezeigt.

Bericht für EDDF

vom 25.09. um 18:20 UTC

Wind 9 kt aus 200°

Sichtweite 10 km oder mehr

gering bewölkt in 3000 ft

aufgelockert bewölkt in 4800 ft

Temperatur 9.0°C

Taupunkt 7.0°C

Luftfeuchtigkeit 87%

Luftdruck 999 hPa

keine wesentliche Wetteränderung innerhalb den nächsten 2 Stunden zu erwarten

EDDF 251820Z 20009KT 9999 FEW030 SCT048 09/07 Q0999 NOSIG

Prognose für EDDF

vom 25.09. um 17:00 UTC

Zwischen 18:00 UTC und 22:00 UTC

Wind 10 kt aus 210°

Sichtweite 10 km oder mehr

aufgelockert bewölkt in 3000 ft


Zwischen 22:00 und 00:00 UTC übergehend zu

Wind 10 kt aus 210°

Sichtweite 10 km oder mehr

aufgebrochene Bewölkung in 3000 ft


Am 26.09. zwischen 06:00 UTC und 00:00 UTC zeitweise

Regen

Sprühregen


Am 26.09. zwischen 18:00 UTC und 00:00 UTC zeitweise mit einer Wahrscheinlichkeit von 40%

Sichtweite 4000 m

Regen

Sprühregen

aufgebrochene Bewölkung in 1000 ft

TAF EDDF 251700Z 2518/2624 21010KT 9999 SCT030 BECMG 2522/2524 BKN030 TEMPO 2606/2624 RADZ PROB40 TEMPO 2618/2624 4000 RADZ BKN010
Impressum